sensor_id;sensor_type;location;lat;lon;timestamp;pressure;altitude;pressure_sealevel;temperature;humidity
34658;BME280;20865;43.312;27.152;2022-09-13T00:01:12;100000.89;;;25.37;45.23
34658;BME280;20865;43.312;27.152;2022-09-13T00:03:39;99997.81;;;25.36;45.39
34658;BME280;20865;43.312;27.152;2022-09-13T00:06:12;99996.28;;;25.38;45.17
34658;BME280;20865;43.312;27.152;2022-09-13T00:08:40;100003.50;;;25.39;45.17
34658;BME280;20865;43.312;27.152;2022-09-13T00:11:25;99998.33;;;25.36;45.15
34658;BME280;20865;43.312;27.152;2022-09-13T00:13:54;99996.80;;;25.37;45.29
34658;BME280;20865;43.312;27.152;2022-09-13T00:16:24;99989.45;;;25.38;45.12
34658;BME280;20865;43.312;27.152;2022-09-13T00:18:53;99989.11;;;25.37;45.32
34658;BME280;20865;43.312;27.152;2022-09-13T00:21:22;99986.72;;;25.38;45.50
34658;BME280;20865;43.312;27.152;2022-09-13T00:23:52;99983.98;;;25.38;45.67
34658;BME280;20865;43.312;27.152;2022-09-13T00:26:23;99984.71;;;25.40;45.33
34658;BME280;20865;43.312;27.152;2022-09-13T00:28:53;99990.91;;;25.42;45.43
34658;BME280;20865;43.312;27.152;2022-09-13T00:31:22;99992.11;;;25.43;45.66
34658;BME280;20865;43.312;27.152;2022-09-13T00:33:50;99993.82;;;25.45;45.39
34658;BME280;20865;43.312;27.152;2022-09-13T00:36:18;99995.91;;;25.47;45.88
34658;BME280;20865;43.312;27.152;2022-09-13T00:38:46;100000.88;;;25.47;45.89
34658;BME280;20865;43.312;27.152;2022-09-13T00:41:16;100000.58;;;25.50;45.98
34658;BME280;20865;43.312;27.152;2022-09-13T00:46:30;99993.23;;;25.51;45.90
34658;BME280;20865;43.312;27.152;2022-09-13T00:48:56;99987.77;;;25.51;45.71
34658;BME280;20865;43.312;27.152;2022-09-13T00:51:23;99985.37;;;25.52;46.40
34658;BME280;20865;43.312;27.152;2022-09-13T00:53:53;99985.08;;;25.55;46.52
34658;BME280;20865;43.312;27.152;2022-09-13T00:56:25;99999.13;;;25.56;45.94
34658;BME280;20865;43.312;27.152;2022-09-13T00:58:58;99996.88;;;25.55;46.19
34658;BME280;20865;43.312;27.152;2022-09-13T01:01:28;99990.03;;;25.55;46.16
34658;BME280;20865;43.312;27.152;2022-09-13T01:03:54;99996.53;;;25.54;45.95
34658;BME280;20865;43.312;27.152;2022-09-13T01:06:24;99998.92;;;25.53;45.83
34658;BME280;20865;43.312;27.152;2022-09-13T01:08:55;100007.47;;;25.54;45.97
34658;BME280;20865;43.312;27.152;2022-09-13T01:14:04;100008.78;;;25.50;46.21
34658;BME280;20865;43.312;27.152;2022-09-13T01:16:33;100013.91;;;25.49;45.90
34658;BME280;20865;43.312;27.152;2022-09-13T01:19:00;100010.25;;;25.58;46.04
34658;BME280;20865;43.312;27.152;2022-09-13T01:30:31;100016.18;;;25.54;46.39
34658;BME280;20865;43.312;27.152;2022-09-13T01:38:44;100006.17;;;25.49;46.36
34658;BME280;20865;43.312;27.152;2022-09-13T01:49:30;99998.55;;;25.38;45.89
34658;BME280;20865;43.312;27.152;2022-09-13T01:52:43;99993.66;;;25.32;45.95
34658;BME280;20865;43.312;27.152;2022-09-13T01:57:20;100001.30;;;25.29;45.83
34658;BME280;20865;43.312;27.152;2022-09-13T01:59:53;99993.67;;;25.23;46.09
34658;BME280;20865;43.312;27.152;2022-09-13T02:02:35;99992.89;;;25.16;46.08
34658;BME280;20865;43.312;27.152;2022-09-13T02:05:08;100000.02;;;25.13;46.02
34658;BME280;20865;43.312;27.152;2022-09-13T02:07:32;99991.26;;;25.00;46.01
34658;BME280;20865;43.312;27.152;2022-09-13T02:10:04;99997.14;;;24.95;45.91
34658;BME280;20865;43.312;27.152;2022-09-13T02:12:32;99992.25;;;24.89;45.51
34658;BME280;20865;43.312;27.152;2022-09-13T02:15:09;99995.78;;;24.86;45.46
34658;BME280;20865;43.312;27.152;2022-09-13T02:17:47;99996.06;;;24.92;45.23
34658;BME280;20865;43.312;27.152;2022-09-13T02:20:17;99993.36;;;24.73;45.64
34658;BME280;20865;43.312;27.152;2022-09-13T02:22:48;99992.05;;;24.67;45.82
34658;BME280;20865;43.312;27.152;2022-09-13T02:25:17;99994.95;;;24.66;45.76
34658;BME280;20865;43.312;27.152;2022-09-13T02:27:49;99989.77;;;24.63;45.58
34658;BME280;20865;43.312;27.152;2022-09-13T02:30:18;99990.20;;;24.58;45.79
34658;BME280;20865;43.312;27.152;2022-09-13T02:33:12;99991.91;;;24.50;46.08
34658;BME280;20865;43.312;27.152;2022-09-13T02:35:47;99983.78;;;24.44;45.88
34658;BME280;20865;43.312;27.152;2022-09-13T02:38:36;99982.34;;;24.40;45.90
34658;BME280;20865;43.312;27.152;2022-09-13T02:40:52;99988.72;;;24.35;45.83
34658;BME280;20865;43.312;27.152;2022-09-13T02:43:23;99985.46;;;24.25;45.84
34658;BME280;20865;43.312;27.152;2022-09-13T02:46:05;99990.92;;;24.25;45.60
34658;BME280;20865;43.312;27.152;2022-09-13T02:48:48;99996.88;;;24.25;45.49
34658;BME280;20865;43.312;27.152;2022-09-13T02:51:29;99996.86;;;24.15;45.86
34658;BME280;20865;43.312;27.152;2022-09-13T02:56:54;99998.78;;;24.09;45.98
34658;BME280;20865;43.312;27.152;2022-09-13T02:59:23;99995.97;;;24.05;46.12
34658;BME280;20865;43.312;27.152;2022-09-13T03:01:59;100000.06;;;24.05;46.03
34658;BME280;20865;43.312;27.152;2022-09-13T03:04:28;100001.81;;;24.06;46.16
34658;BME280;20865;43.312;27.152;2022-09-13T03:06:56;100005.91;;;24.06;45.97
34658;BME280;20865;43.312;27.152;2022-09-13T03:09:23;100007.89;;;24.04;45.80
34658;BME280;20865;43.312;27.152;2022-09-13T03:14:46;100000.53;;;23.95;45.82
34658;BME280;20865;43.312;27.152;2022-09-13T03:17:18;99995.86;;;23.91;45.72
34658;BME280;20865;43.312;27.152;2022-09-13T03:28:20;100008.16;;;23.76;45.46
34658;BME280;20865;43.312;27.152;2022-09-13T03:30:53;100017.04;;;23.63;46.17
34658;BME280;20865;43.312;27.152;2022-09-13T03:33:29;100014.19;;;23.64;46.51
34658;BME280;20865;43.312;27.152;2022-09-13T03:36:10;100018.98;;;23.66;46.43
34658;BME280;20865;43.312;27.152;2022-09-13T03:38:32;100006.72;;;23.72;46.17
34658;BME280;20865;43.312;27.152;2022-09-13T03:41:10;100011.20;;;23.67;46.17
34658;BME280;20865;43.312;27.152;2022-09-13T03:46:14;100012.63;;;23.56;45.88
34658;BME280;20865;43.312;27.152;2022-09-13T03:48:41;100012.63;;;23.56;45.69
34658;BME280;20865;43.312;27.152;2022-09-13T03:51:10;100013.03;;;23.72;45.18
34658;BME280;20865;43.312;27.152;2022-09-13T03:53:45;100017.22;;;23.56;45.91
34658;BME280;20865;43.312;27.152;2022-09-13T03:56:16;100016.98;;;23.53;46.09
34658;BME280;20865;43.312;27.152;2022-09-13T03:58:46;100019.36;;;23.52;46.19
34658;BME280;20865;43.312;27.152;2022-09-13T04:01:20;100027.53;;;23.52;46.15
34658;BME280;20865;43.312;27.152;2022-09-13T04:03:48;100029.91;;;23.51;45.94
34658;BME280;20865;43.312;27.152;2022-09-13T04:06:16;100019.63;;;23.49;45.98
34658;BME280;20865;43.312;27.152;2022-09-13T04:08:43;100021.25;;;23.46;45.92
34658;BME280;20865;43.312;27.152;2022-09-13T04:11:11;100031.45;;;23.44;45.93
34658;BME280;20865;43.312;27.152;2022-09-13T04:13:38;100028.63;;;23.40;45.85
34658;BME280;20865;43.312;27.152;2022-09-13T04:16:07;100033.34;;;23.38;45.93
34658;BME280;20865;43.312;27.152;2022-09-13T04:18:35;100037.43;;;23.38;45.74
34658;BME280;20865;43.312;27.152;2022-09-13T04:21:03;100037.58;;;23.36;45.68
34658;BME280;20865;43.312;27.152;2022-09-13T04:23:31;100045.36;;;23.35;45.84
34658;BME280;20865;43.312;27.152;2022-09-13T04:26:03;100046.99;;;23.32;46.05
34658;BME280;20865;43.312;27.152;2022-09-13T04:28:31;100053.59;;;23.29;46.13
34658;BME280;20865;43.312;27.152;2022-09-13T04:30:59;100054.48;;;23.24;46.23
34658;BME280;20865;43.312;27.152;2022-09-13T04:33:26;100051.75;;;23.24;46.19
34658;BME280;20865;43.312;27.152;2022-09-13T04:35:58;100047.50;;;23.32;46.04
34658;BME280;20865;43.312;27.152;2022-09-13T04:38:26;100045.19;;;23.27;46.16
34658;BME280;20865;43.312;27.152;2022-09-13T04:40:56;100039.58;;;23.28;46.23
34658;BME280;20865;43.312;27.152;2022-09-13T04:43:24;100042.55;;;23.31;46.75
34658;BME280;20865;43.312;27.152;2022-09-13T04:45:51;100041.16;;;23.37;46.72
34658;BME280;20865;43.312;27.152;2022-09-13T04:48:19;100044.75;;;23.52;46.55
34658;BME280;20865;43.312;27.152;2022-09-13T04:50:46;100044.45;;;23.61;46.68
34658;BME280;20865;43.312;27.152;2022-09-13T04:53:14;100048.13;;;23.71;46.70
34658;BME280;20865;43.312;27.152;2022-09-13T04:55:42;100053.16;;;23.76;46.53
34658;BME280;20865;43.312;27.152;2022-09-13T04:58:09;100051.25;;;23.82;46.41
34658;BME280;20865;43.312;27.152;2022-09-13T05:00:37;100053.56;;;23.87;46.58
34658;BME280;20865;43.312;27.152;2022-09-13T05:03:04;100052.63;;;23.92;46.60
34658;BME280;20865;43.312;27.152;2022-09-13T05:05:32;100055.41;;;24.01;46.54
34658;BME280;20865;43.312;27.152;2022-09-13T05:08:00;100055.75;;;24.18;46.33
34658;BME280;20865;43.312;27.152;2022-09-13T05:10:27;100055.86;;;24.32;46.19
34658;BME280;20865;43.312;27.152;2022-09-13T05:12:55;100057.08;;;24.48;45.84
34658;BME280;20865;43.312;27.152;2022-09-13T05:15:23;100054.74;;;24.69;45.64
34658;BME280;20865;43.312;27.152;2022-09-13T05:17:50;100056.09;;;24.79;45.53
34658;BME280;20865;43.312;27.152;2022-09-13T05:20:18;100056.26;;;24.97;45.46
34658;BME280;20865;43.312;27.152;2022-09-13T05:22:46;100056.03;;;25.13;45.09
34658;BME280;20865;43.312;27.152;2022-09-13T05:25:14;100060.75;;;25.40;44.77
34658;BME280;20865;43.312;27.152;2022-09-13T05:27:42;100059.36;;;25.50;44.58
34658;BME280;20865;43.312;27.152;2022-09-13T05:30:12;100064.28;;;25.70;44.26
34658;BME280;20865;43.312;27.152;2022-09-13T05:32:40;100066.83;;;25.91;44.09
34658;BME280;20865;43.312;27.152;2022-09-13T05:35:08;100071.03;;;26.13;43.30
34658;BME280;20865;43.312;27.152;2022-09-13T05:37:35;100071.94;;;26.31;43.16
34658;BME280;20865;43.312;27.152;2022-09-13T05:42:52;100067.64;;;26.74;42.43
34658;BME280;20865;43.312;27.152;2022-09-13T05:45:20;100059.85;;;27.01;42.26
34658;BME280;20865;43.312;27.152;2022-09-13T05:47:50;100067.75;;;27.18;41.71
34658;BME280;20865;43.312;27.152;2022-09-13T05:50:19;100065.29;;;27.55;41.36
34658;BME280;20865;43.312;27.152;2022-09-13T05:52:53;100065.29;;;27.55;41.36
34658;BME280;20865;43.312;27.152;2022-09-13T05:55:21;100072.28;;;27.75;40.64
34658;BME280;20865;43.312;27.152;2022-09-13T05:57:49;100065.59;;;28.04;40.65
34658;BME280;20865;43.312;27.152;2022-09-13T06:00:17;100075.37;;;28.07;40.77
34658;BME280;20865;43.312;27.152;2022-09-13T06:02:44;100069.29;;;28.25;40.34
34658;BME280;20865;43.312;27.152;2022-09-13T06:05:12;100079.50;;;28.45;39.43
34658;BME280;20865;43.312;27.152;2022-09-13T06:07:41;100085.05;;;28.61;38.30
34658;BME280;20865;43.312;27.152;2022-09-13T06:10:09;100078.38;;;28.76;38.74
34658;BME280;20865;43.312;27.152;2022-09-13T06:12:37;100085.98;;;28.94;38.62
34658;BME280;20865;43.312;27.152;2022-09-13T06:15:05;100080.17;;;29.18;38.11
34658;BME280;20865;43.312;27.152;2022-09-13T06:17:34;100074.32;;;29.25;37.48
34658;BME280;20865;43.312;27.152;2022-09-13T06:20:02;100075.38;;;29.36;37.02
34658;BME280;20865;43.312;27.152;2022-09-13T06:22:30;100071.41;;;29.35;37.18
34658;BME280;20865;43.312;27.152;2022-09-13T06:24:59;100067.79;;;29.51;36.76
34658;BME280;20865;43.312;27.152;2022-09-13T06:27:28;100068.15;;;29.64;36.21
34658;BME280;20865;43.312;27.152;2022-09-13T06:29:56;100081.88;;;29.72;35.29
34658;BME280;20865;43.312;27.152;2022-09-13T06:32:24;100074.30;;;29.70;34.86
34658;BME280;20865;43.312;27.152;2022-09-13T06:34:55;100077.72;;;29.80;35.17
34658;BME280;20865;43.312;27.152;2022-09-13T06:37:24;100085.44;;;29.93;35.57
34658;BME280;20865;43.312;27.152;2022-09-13T06:39:52;100077.86;;;29.91;35.77
34658;BME280;20865;43.312;27.152;2022-09-13T06:42:19;100082.86;;;29.87;35.31
34658;BME280;20865;43.312;27.152;2022-09-13T06:44:47;100084.08;;;29.89;34.78
34658;BME280;20865;43.312;27.152;2022-09-13T06:47:14;100087.66;;;29.98;34.35
34658;BME280;20865;43.312;27.152;2022-09-13T06:49:42;100089.02;;;30.06;34.85
34658;BME280;20865;43.312;27.152;2022-09-13T06:52:09;100087.94;;;30.15;34.12
34658;BME280;20865;43.312;27.152;2022-09-13T06:54:37;100085.20;;;30.19;34.74
34658;BME280;20865;43.312;27.152;2022-09-13T06:57:04;100091.23;;;30.19;34.32
34658;BME280;20865;43.312;27.152;2022-09-13T06:59:32;100088.46;;;30.27;33.99
34658;BME280;20865;43.312;27.152;2022-09-13T07:02:00;100088.95;;;30.26;33.36
34658;BME280;20865;43.312;27.152;2022-09-13T07:04:28;100084.64;;;30.32;33.80
34658;BME280;20865;43.312;27.152;2022-09-13T07:06:58;100084.56;;;30.48;33.35
34658;BME280;20865;43.312;27.152;2022-09-13T07:09:26;100084.73;;;30.47;33.12
34658;BME280;20865;43.312;27.152;2022-09-13T07:11:54;100088.13;;;30.57;31.92
34658;BME280;20865;43.312;27.152;2022-09-13T07:14:24;100085.66;;;30.66;31.69
34658;BME280;20865;43.312;27.152;2022-09-13T07:16:54;100092.17;;;30.73;32.52
34658;BME280;20865;43.312;27.152;2022-09-13T07:19:24;100086.30;;;30.80;31.70
34658;BME280;20865;43.312;27.152;2022-09-13T07:21:55;100090.79;;;30.73;32.39
34658;BME280;20865;43.312;27.152;2022-09-13T07:24:24;100087.94;;;30.94;31.46
34658;BME280;20865;43.312;27.152;2022-09-13T07:26:52;100090.07;;;30.83;32.07
34658;BME280;20865;43.312;27.152;2022-09-13T07:29:22;100099.20;;;30.84;32.04
34658;BME280;20865;43.312;27.152;2022-09-13T07:31:51;100093.45;;;30.94;31.19
34658;BME280;20865;43.312;27.152;2022-09-13T07:34:22;100097.22;;;30.93;30.40
34658;BME280;20865;43.312;27.152;2022-09-13T07:36:50;100100.80;;;31.01;30.49
34658;BME280;20865;43.312;27.152;2022-09-13T07:39:20;100095.66;;;31.17;30.14
34658;BME280;20865;43.312;27.152;2022-09-13T07:41:50;100101.18;;;31.17;29.76
34658;BME280;20865;43.312;27.152;2022-09-13T07:44:19;100097.92;;;31.18;29.28
34658;BME280;20865;43.312;27.152;2022-09-13T07:46:48;100100.48;;;31.19;30.37
34658;BME280;20865;43.312;27.152;2022-09-13T07:49:17;100090.05;;;31.34;29.07
34658;BME280;20865;43.312;27.152;2022-09-13T07:51:47;100094.05;;;31.50;29.17
34658;BME280;20865;43.312;27.152;2022-09-13T07:54:20;100096.97;;;31.52;27.69
34658;BME280;20865;43.312;27.152;2022-09-13T07:56:47;100092.47;;;31.51;26.87
34658;BME280;20865;43.312;27.152;2022-09-13T07:59:20;100095.88;;;31.58;28.09
34658;BME280;20865;43.312;27.152;2022-09-13T08:01:49;100088.51;;;31.69;28.24
34658;BME280;20865;43.312;27.152;2022-09-13T08:04:23;100095.67;;;31.78;27.61
34658;BME280;20865;43.312;27.152;2022-09-13T08:06:53;100096.15;;;31.82;28.04
34658;BME280;20865;43.312;27.152;2022-09-13T08:09:16;100093.96;;;31.77;27.18
34658;BME280;20865;43.312;27.152;2022-09-13T08:11:46;100096.83;;;31.84;26.70
34658;BME280;20865;43.312;27.152;2022-09-13T08:14:16;100086.41;;;31.90;26.94
34658;BME280;20865;43.312;27.152;2022-09-13T08:16:46;100087.73;;;31.98;27.31
34658;BME280;20865;43.312;27.152;2022-09-13T08:19:17;100091.33;;;32.13;27.54
34658;BME280;20865;43.312;27.152;2022-09-13T08:21:49;100094.34;;;32.22;26.45
34658;BME280;20865;43.312;27.152;2022-09-13T08:24:18;100083.61;;;32.23;26.10
34658;BME280;20865;43.312;27.152;2022-09-13T08:26:52;100086.42;;;32.19;26.07
34658;BME280;20865;43.312;27.152;2022-09-13T08:29:18;100080.56;;;32.33;26.70
34658;BME280;20865;43.312;27.152;2022-09-13T08:31:50;100078.50;;;32.46;26.04
34658;BME280;20865;43.312;27.152;2022-09-13T08:34:22;100076.03;;;32.51;25.96
34658;BME280;20865;43.312;27.152;2022-09-13T08:36:51;100080.45;;;32.67;26.24
34658;BME280;20865;43.312;27.152;2022-09-13T08:39:22;100068.83;;;32.71;26.56
34658;BME280;20865;43.312;27.152;2022-09-13T08:42:02;100069.55;;;32.80;26.23
34658;BME280;20865;43.312;27.152;2022-09-13T08:44:34;100069.47;;;32.73;25.54
34658;BME280;20865;43.312;27.152;2022-09-13T08:52:53;100061.39;;;32.83;21.86
34658;BME280;20865;43.312;27.152;2022-09-13T08:55:30;100061.45;;;32.79;24.00
34658;BME280;20865;43.312;27.152;2022-09-13T08:57:59;100058.16;;;32.79;24.87
34658;BME280;20865;43.312;27.152;2022-09-13T09:00:37;100056.39;;;32.82;23.54
34658;BME280;20865;43.312;27.152;2022-09-13T09:03:17;100048.88;;;32.87;23.38
34658;BME280;20865;43.312;27.152;2022-09-13T09:05:49;100037.95;;;32.79;24.24
34658;BME280;20865;43.312;27.152;2022-09-13T09:08:25;100046.43;;;32.88;23.83
34658;BME280;20865;43.312;27.152;2022-09-13T09:10:52;100039.20;;;32.76;22.14
34658;BME280;20865;43.312;27.152;2022-09-13T09:13:32;100036.20;;;33.14;23.75
34658;BME280;20865;43.312;27.152;2022-09-13T09:16:10;100040.86;;;32.81;23.20
34658;BME280;20865;43.312;27.152;2022-09-13T09:18:35;100033.80;;;32.89;23.84
34658;BME280;20865;43.312;27.152;2022-09-13T09:21:10;100036.43;;;32.87;23.71
34658;BME280;20865;43.312;27.152;2022-09-13T09:23:50;100031.27;;;33.09;22.31
34658;BME280;20865;43.312;27.152;2022-09-13T09:26:23;100019.06;;;33.14;21.58
34658;BME280;20865;43.312;27.152;2022-09-13T09:29:20;100023.02;;;33.05;21.50
34658;BME280;20865;43.312;27.152;2022-09-13T09:39:29;100020.43;;;33.25;22.60
34658;BME280;20865;43.312;27.152;2022-09-13T09:41:59;100023.61;;;33.11;21.81
34658;BME280;20865;43.312;27.152;2022-09-13T09:44:30;100028.88;;;33.17;21.14
34658;BME280;20865;43.312;27.152;2022-09-13T09:49:36;100024.13;;;33.22;21.46
34658;BME280;20865;43.312;27.152;2022-09-13T09:52:25;100021.46;;;32.96;20.96
34658;BME280;20865;43.312;27.152;2022-09-13T09:54:55;100027.35;;;32.93;21.97
34658;BME280;20865;43.312;27.152;2022-09-13T10:00:20;100016.36;;;32.78;22.54
34658;BME280;20865;43.312;27.152;2022-09-13T10:02:59;100019.23;;;32.59;22.42
34658;BME280;20865;43.312;27.152;2022-09-13T10:05:27;100020.47;;;32.57;22.78
34658;BME280;20865;43.312;27.152;2022-09-13T10:10:42;100011.39;;;32.52;23.12
34658;BME280;20865;43.312;27.152;2022-09-13T10:13:16;100009.24;;;32.33;23.50
34658;BME280;20865;43.312;27.152;2022-09-13T10:16:04;100007.57;;;32.28;23.50
34658;BME280;20865;43.312;27.152;2022-09-13T10:18:33;100008.56;;;32.31;22.68
34658;BME280;20865;43.312;27.152;2022-09-13T10:23:48;99999.26;;;32.17;24.27
34658;BME280;20865;43.312;27.152;2022-09-13T10:26:20;99999.75;;;32.31;24.63
34658;BME280;20865;43.312;27.152;2022-09-13T10:28:56;100004.62;;;32.44;23.62
34658;BME280;20865;43.312;27.152;2022-09-13T10:31:36;100003.05;;;32.31;23.20
34658;BME280;20865;43.312;27.152;2022-09-13T10:34:10;100005.87;;;32.26;23.47
34658;BME280;20865;43.312;27.152;2022-09-13T10:36:35;100001.47;;;32.07;22.65
34658;BME280;20865;43.312;27.152;2022-09-13T10:39:17;100008.77;;;31.89;23.32
34658;BME280;20865;43.312;27.152;2022-09-13T10:41:39;100009.17;;;31.82;22.89
34658;BME280;20865;43.312;27.152;2022-09-13T10:47:06;100009.55;;;31.78;24.09
34658;BME280;20865;43.312;27.152;2022-09-13T10:49:36;100006.52;;;31.73;24.25
34658;BME280;20865;43.312;27.152;2022-09-13T10:52:30;100004.26;;;31.73;24.21
34658;BME280;20865;43.312;27.152;2022-09-13T10:58:10;99993.59;;;31.89;24.58
34658;BME280;20865;43.312;27.152;2022-09-13T11:06:30;99990.85;;;31.85;23.91
34658;BME280;20865;43.312;27.152;2022-09-13T11:09:11;99983.16;;;31.80;23.43
34658;BME280;20865;43.312;27.152;2022-09-13T11:14:37;99978.82;;;31.67;23.92
34658;BME280;20865;43.312;27.152;2022-09-13T11:25:08;99980.70;;;31.37;23.94
34658;BME280;20865;43.312;27.152;2022-09-13T11:27:40;99975.86;;;31.39;24.20
34658;BME280;20865;43.312;27.152;2022-09-13T11:35:32;99962.83;;;31.92;24.25
34658;BME280;20865;43.312;27.152;2022-09-13T11:46:08;99948.81;;;32.55;22.94
34658;BME280;20865;43.312;27.152;2022-09-13T11:48:42;99950.26;;;32.72;22.96
34658;BME280;20865;43.312;27.152;2022-09-13T11:51:37;99950.00;;;32.78;22.44
34658;BME280;20865;43.312;27.152;2022-09-13T11:54:19;99955.33;;;32.69;22.80
34658;BME280;20865;43.312;27.152;2022-09-13T11:56:45;99961.81;;;32.40;23.36
34658;BME280;20865;43.312;27.152;2022-09-13T12:00:25;99954.30;;;32.34;22.80
34658;BME280;20865;43.312;27.152;2022-09-13T12:02:09;99960.65;;;32.13;23.37
34658;BME280;20865;43.312;27.152;2022-09-13T12:05:02;99955.42;;;32.03;23.42
34658;BME280;20865;43.312;27.152;2022-09-13T12:07:51;99958.86;;;31.90;23.87
34658;BME280;20865;43.312;27.152;2022-09-13T12:09:54;99959.39;;;31.90;23.97
34658;BME280;20865;43.312;27.152;2022-09-13T12:12:22;99962.81;;;31.62;24.78
34658;BME280;20865;43.312;27.152;2022-09-13T12:15:05;99960.53;;;31.51;24.71
34658;BME280;20865;43.312;27.152;2022-09-13T12:17:36;99960.38;;;31.48;24.80
34658;BME280;20865;43.312;27.152;2022-09-13T12:20:13;99958.78;;;31.54;24.60
34658;BME280;20865;43.312;27.152;2022-09-13T12:22:36;99954.83;;;31.67;24.16
34658;BME280;20865;43.312;27.152;2022-09-13T12:25:11;99947.11;;;31.77;23.80
34658;BME280;20865;43.312;27.152;2022-09-13T12:27:44;99948.59;;;31.84;23.79
34658;BME280;20865;43.312;27.152;2022-09-13T12:30:19;99943.23;;;31.97;23.59
34658;BME280;20865;43.312;27.152;2022-09-13T12:32:48;99947.52;;;32.00;23.31
34658;BME280;20865;43.312;27.152;2022-09-13T12:37:51;99945.68;;;32.22;23.67
34658;BME280;20865;43.312;27.152;2022-09-13T12:40:37;99952.59;;;32.22;23.00
34658;BME280;20865;43.312;27.152;2022-09-13T12:46:25;99950.67;;;32.22;22.37
34658;BME280;20865;43.312;27.152;2022-09-13T12:51:46;99948.17;;;31.91;22.24
34658;BME280;20865;43.312;27.152;2022-09-13T12:57:01;99953.46;;;31.52;23.78
34658;BME280;20865;43.312;27.152;2022-09-13T13:00:07;99941.84;;;31.42;24.07
34658;BME280;20865;43.312;27.152;2022-09-13T13:02:36;99945.31;;;31.40;24.58
34658;BME280;20865;43.312;27.152;2022-09-13T13:05:25;99946.36;;;31.54;24.22
34658;BME280;20865;43.312;27.152;2022-09-13T13:13:40;99928.30;;;31.62;23.87
34658;BME280;20865;43.312;27.152;2022-09-13T13:16:23;99937.00;;;31.59;23.59
34658;BME280;20865;43.312;27.152;2022-09-13T13:18:54;99940.23;;;31.63;23.43
34658;BME280;20865;43.312;27.152;2022-09-13T13:21:34;99932.50;;;31.58;23.14
34658;BME280;20865;43.312;27.152;2022-09-13T13:26:55;99946.98;;;31.60;22.28
34658;BME280;20865;43.312;27.152;2022-09-13T13:29:29;99940.61;;;31.60;22.87
34658;BME280;20865;43.312;27.152;2022-09-13T13:34:51;99941.31;;;31.58;23.53
34658;BME280;20865;43.312;27.152;2022-09-13T13:40:39;99937.70;;;31.57;23.10
34658;BME280;20865;43.312;27.152;2022-09-13T13:42:42;99935.94;;;31.60;23.94
34658;BME280;20865;43.312;27.152;2022-09-13T13:45:20;99945.88;;;31.50;24.05
34658;BME280;20865;43.312;27.152;2022-09-13T13:48:04;99939.84;;;31.51;23.98
34658;BME280;20865;43.312;27.152;2022-09-13T13:50:24;99946.52;;;31.42;23.45
34658;BME280;20865;43.312;27.152;2022-09-13T13:53:13;99945.53;;;31.35;24.02
34658;BME280;20865;43.312;27.152;2022-09-13T14:00:52;99943.23;;;31.42;23.35
34658;BME280;20865;43.312;27.152;2022-09-13T14:03:48;99934.08;;;31.08;24.08
34658;BME280;20865;43.312;27.152;2022-09-13T14:07:04;99940.77;;;31.09;23.80
34658;BME280;20865;43.312;27.152;2022-09-13T14:22:22;99959.81;;;30.81;23.71
34658;BME280;20865;43.312;27.152;2022-09-13T14:24:54;99958.11;;;30.80;23.50
34658;BME280;20865;43.312;27.152;2022-09-13T14:27:24;99956.41;;;30.75;23.50
34658;BME280;20865;43.312;27.152;2022-09-13T14:30:04;99959.45;;;30.84;22.92
34658;BME280;20865;43.312;27.152;2022-09-13T14:32:42;99959.94;;;30.88;22.91
34658;BME280;20865;43.312;27.152;2022-09-13T14:35:26;99961.88;;;30.83;23.08
34658;BME280;20865;43.312;27.152;2022-09-13T14:37:53;99965.64;;;30.87;22.79
34658;BME280;20865;43.312;27.152;2022-09-13T14:40:25;99964.27;;;30.87;22.58
34658;BME280;20865;43.312;27.152;2022-09-13T14:42:56;99960.50;;;30.83;22.48
34658;BME280;20865;43.312;27.152;2022-09-13T14:45:30;99962.61;;;30.77;22.68
34658;BME280;20865;43.312;27.152;2022-09-13T14:53:31;99966.70;;;30.58;22.37
34658;BME280;20865;43.312;27.152;2022-09-13T14:56:31;99972.02;;;30.60;22.86
34658;BME280;20865;43.312;27.152;2022-09-13T14:58:58;99972.94;;;30.52;22.96
34658;BME280;20865;43.312;27.152;2022-09-13T15:01:34;99970.02;;;30.50;23.23
34658;BME280;20865;43.312;27.152;2022-09-13T15:04:03;99975.92;;;30.43;23.54
34658;BME280;20865;43.312;27.152;2022-09-13T15:06:37;99983.14;;;30.44;23.92
34658;BME280;20865;43.312;27.152;2022-09-13T15:09:13;99974.39;;;30.44;23.52
34658;BME280;20865;43.312;27.152;2022-09-13T15:14:23;99975.92;;;30.43;24.22
34658;BME280;20865;43.312;27.152;2022-09-13T15:16:57;99975.23;;;30.45;24.10
34658;BME280;20865;43.312;27.152;2022-09-13T15:19:26;99980.78;;;30.41;23.74
34658;BME280;20865;43.312;27.152;2022-09-13T15:22:26;99975.11;;;30.38;23.66
34658;BME280;20865;43.312;27.152;2022-09-13T15:24:38;99975.63;;;30.37;23.88
34658;BME280;20865;43.312;27.152;2022-09-13T15:27:54;99973.89;;;30.36;24.41
34658;BME280;20865;43.312;27.152;2022-09-13T15:29:43;99973.73;;;30.38;24.41
34658;BME280;20865;43.312;27.152;2022-09-13T15:32:33;99969.59;;;30.38;24.45
34658;BME280;20865;43.312;27.152;2022-09-13T15:34:54;99980.25;;;30.41;24.80
34658;BME280;20865;43.312;27.152;2022-09-13T15:37:27;99977.50;;;30.41;24.57
34658;BME280;20865;43.312;27.152;2022-09-13T15:39:49;99968.72;;;30.42;24.63
34658;BME280;20865;43.312;27.152;2022-09-13T15:42:25;99980.62;;;30.38;24.96
34658;BME280;20865;43.312;27.152;2022-09-13T15:45:08;99975.14;;;30.34;24.39
34658;BME280;20865;43.312;27.152;2022-09-13T15:47:26;99980.64;;;30.30;24.71
34658;BME280;20865;43.312;27.152;2022-09-13T15:49:56;99981.01;;;30.31;25.36
34658;BME280;20865;43.312;27.152;2022-09-13T15:52:26;99981.20;;;30.25;24.90